Vega Emtoli — LAQY7 — position and weather

sailwx.info

Track history (hours):
 
Tides and Currents Weather Stations Pressure Air Temp Water Temp Dewpoint Dewpoint Depression Visibility Wind Speed Wind Dir Waves Ship Positions

Vega Emtoli

Last reported at 2015-Jul-19 12:33 UTC. Time now 2015-Jul-29 21:55 UTC.
Position S 23°28' W 040°60'.
Warning: this ship's position is 10 days out of date.

Length 59 m; draft 5.2 m.

Type: Pollution control. MMSI: 258026000.

Date/timePositionNaut miles runAvg speedWind from/ knotsBaromVisibWave heightAir tempDewpointWater temp
2015-Jul-19 12:33S 23°28' W 040°60'1 0.3
2015-Jul-19 10:10S 23°28' W 041°00'1 0.9
2015-Jul-19 09:31S 23°29' W 041°01'1 0.9
2015-Jul-19 08:31S 23°29' W 041°02'1 0.9
2015-Jul-19 07:33S 23°29' W 041°03'1 0.8
2015-Jul-19 06:33S 23°29' W 041°02'3 2.5
2015-Jul-19 05:23S 23°27' W 040°59'2 0.3
2015-Jul-19 00:33S 23°27' W 041°01'0 0.5
2015-Jul-18 23:33S 23°28' W 041°00'0 0.4
2015-Jul-18 22:33S 23°28' W 041°00'0 0.2
2015-Jul-18 21:33S 23°28' W 041°00'1 1.3
2015-Jul-18 20:32S 23°29' W 041°02'2 1.9
2015-Jul-18 19:28S 23°27' W 041°01'2 0.2
2015-Jul-18 09:32S 23°29' W 041°01'3 3.4
2015-Jul-18 08:32S 23°27' W 040°58'0 0.3
2015-Jul-18 07:33S 23°27' W 040°59'1 0.5
2015-Jul-18 06:29S 23°27' W 040°59'0 0.4
2015-Jul-18 05:25S 23°27' W 040°60'0 0.5
2015-Jul-18 04:28S 23°27' W 041°00'0 0.4
2015-Jul-18 03:30S 23°28' W 041°00'0 0.3
2015-Jul-18 02:33S 23°28' W 041°01'0 0.3
2015-Jul-18 01:33S 23°28' W 041°01'0 0.4
2015-Jul-18 00:32S 23°28' W 041°01'0 0.4
2015-Jul-17 23:33S 23°29' W 041°01'0 0.4
2015-Jul-17 22:28S 23°29' W 041°02'0 0.4
2015-Jul-17 21:32S 23°29' W 041°01'1 0.4
2015-Jul-17 18:29S 23°29' W 041°00'2 1.6
2015-Jul-17 17:25S 23°30' W 041°01'4 3.1
2015-Jul-17 16:10S 23°27' W 040°58'2 1.1
2015-Jul-17 14:17S 23°29' W 041°00'1 0.2
2015-Jul-17 11:29S 23°29' W 041°01'0 0.2
2015-Jul-17 10:31S 23°29' W 041°01'1 0.7
2015-Jul-17 09:17S 23°30' W 041°02'2 2.1
2015-Jul-17 08:32S 23°29' W 041°00'1 0.2
2015-Jul-17 05:27S 23°28' W 041°00'1 1.0
2015-Jul-17 04:32S 23°28' W 041°01'1 1.0
2015-Jul-17 03:31S 23°29' W 041°02'1 0.8
2015-Jul-17 02:29S 23°29' W 041°03'1 0.7
2015-Jul-17 00:33S 23°29' W 041°02'0 0.2
2015-Jul-16 23:31S 23°29' W 041°02'0 0.1
2015-Jul-16 22:33S 23°29' W 041°02'0 0.2
2015-Jul-16 21:33S 23°29' W 041°02'3 3.0
2015-Jul-16 20:31S 23°27' W 040°60'0 0.5
2015-Jul-16 19:30S 23°27' W 040°60'1 1.0
2015-Jul-16 18:31S 23°27' W 041°01'1 0.9
2015-Jul-16 17:33S 23°27' W 041°02'1 0.6
2015-Jul-16 16:33S 23°28' W 041°02'1 0.6
2015-Jul-16 15:33S 23°28' W 041°02'1 0.6
2015-Jul-16 14:31S 23°29' W 041°02'0 0.1
2015-Jul-16 12:29S 23°29' W 041°02'0 0.1
2015-Jul-16 11:33S 23°29' W 041°02'0 0.1
2015-Jul-16 10:33S 23°29' W 041°02'0 0.1
2015-Jul-16 09:34S 23°29' W 041°02'1 0.9
2015-Jul-16 08:25S 23°29' W 041°01'0 0.6
2015-Jul-16 07:31S 23°29' W 041°02'0 0.5
2015-Jul-16 06:33S 23°29' W 041°02'0 0.4
2015-Jul-16 05:33S 23°30' W 041°01'1 0.9
2015-Jul-16 04:33S 23°29' W 041°01'1 0.1
2015-Jul-15 21:32S 23°29' W 041°02'0 0.2
2015-Jul-15 20:28S 23°29' W 041°02'0 0.3
2015-Jul-15 19:33S 23°29' W 041°02'0 0.3
2015-Jul-15 18:32S 23°29' W 041°02'0 0.2
2015-Jul-15 17:33S 23°29' W 041°02'0 0.2
2015-Jul-15 16:33S 23°29' W 041°02'0 0.2
2015-Jul-15 15:33S 23°29' W 041°02'1 0.5
2015-Jul-15 14:32S 23°29' W 041°02'0 0.3
2015-Jul-15 13:26S 23°29' W 041°02'1 0.7
2015-Jul-15 12:33S 23°29' W 041°01'1 0.9
2015-Jul-15 11:31S 23°29' W 041°02'0 0.2
2015-Jul-15 10:32S 23°29' W 041°02'0 0.2
2015-Jul-15 09:24S 23°29' W 041°02'0 0.1
2015-Jul-15 08:33S 23°29' W 041°02'0 0.5
2015-Jul-15 07:32S 23°29' W 041°02'1 0.9
2015-Jul-15 06:33S 23°29' W 041°03'0 0.2
2015-Jul-15 05:32S 23°29' W 041°02'0 0.3
2015-Jul-15 04:33S 23°29' W 041°02'1 0.5
2015-Jul-15 03:33S 23°29' W 041°02'0 0.2
2015-Jul-15 02:32S 23°29' W 041°02'0 0.1
2015-Jul-15 01:33S 23°29' W 041°02'0 0.2
2015-Jul-15 00:33S 23°29' W 041°02'0 0.1
2015-Jul-14 23:32S 23°29' W 041°02'0 0.1
2015-Jul-14 22:33S 23°29' W 041°02'0 0.2
2015-Jul-14 21:28S 23°29' W 041°02'0 0.4
2015-Jul-14 20:27S 23°29' W 041°03'0 0.2
2015-Jul-14 19:33S 23°29' W 041°03'0 0.1
2015-Jul-14 18:33S 23°29' W 041°03'0 0.1
2015-Jul-14 17:33S 23°29' W 041°03'0 0.5
2015-Jul-14 16:33S 23°29' W 041°02'0 0.2
2015-Jul-14 15:20S 23°29' W 041°02'0 0.1
2015-Jul-14 14:33S 23°29' W 041°02'0 0.2
2015-Jul-14 13:33S 23°29' W 041°02'0 0.2
2015-Jul-14 12:33S 23°29' W 041°02'0 0.1
2015-Jul-14 11:33S 23°29' W 041°02'  
Track history (hours):
 
Tides and Currents Weather Stations Pressure Air Temp Water Temp Dewpoint Dewpoint Depression Visibility Wind Speed Wind Dir Waves Ship Positions

Vega Emtoli

Last reported at 2015-Jul-19 12:33 UTC. Time now 2015-Jul-29 21:55 UTC.
Position S 23°28' W 040°60'.
Warning: this ship's position is 10 days out of date.

Length 59 m; draft 5.2 m.

Type: Pollution control. MMSI: 258026000.

Date/timePositionNaut miles runAvg speedWind from/ knotsBaromVisibWave heightAir tempDewpointWater temp
2015-Jul-19 12:33S 23°28' W 040°60'1 0.3
2015-Jul-19 10:10S 23°28' W 041°00'1 0.9
2015-Jul-19 09:31S 23°29' W 041°01'1 0.9
2015-Jul-19 08:31S 23°29' W 041°02'1 0.9
2015-Jul-19 07:33S 23°29' W 041°03'1 0.8
2015-Jul-19 06:33S 23°29' W 041°02'3 2.5
2015-Jul-19 05:23S 23°27' W 040°59'2 0.3
2015-Jul-19 00:33S 23°27' W 041°01'0 0.5
2015-Jul-18 23:33S 23°28' W 041°00'0 0.4
2015-Jul-18 22:33S 23°28' W 041°00'0 0.2
2015-Jul-18 21:33S 23°28' W 041°00'1 1.3
2015-Jul-18 20:32S 23°29' W 041°02'2 1.9
2015-Jul-18 19:28S 23°27' W 041°01'2 0.2
2015-Jul-18 09:32S 23°29' W 041°01'3 3.4
2015-Jul-18 08:32S 23°27' W 040°58'0 0.3
2015-Jul-18 07:33S 23°27' W 040°59'1 0.5
2015-Jul-18 06:29S 23°27' W 040°59'0 0.4
2015-Jul-18 05:25S 23°27' W 040°60'0 0.5
2015-Jul-18 04:28S 23°27' W 041°00'0 0.4
2015-Jul-18 03:30S 23°28' W 041°00'0 0.3
2015-Jul-18 02:33S 23°28' W 041°01'0 0.3
2015-Jul-18 01:33S 23°28' W 041°01'0 0.4
2015-Jul-18 00:32S 23°28' W 041°01'0 0.4
2015-Jul-17 23:33S 23°29' W 041°01'0 0.4
2015-Jul-17 22:28S 23°29' W 041°02'0 0.4
2015-Jul-17 21:32S 23°29' W 041°01'1 0.4
2015-Jul-17 18:29S 23°29' W 041°00'2 1.6
2015-Jul-17 17:25S 23°30' W 041°01'4 3.1
2015-Jul-17 16:10S 23°27' W 040°58'2 1.1
2015-Jul-17 14:17S 23°29' W 041°00'1 0.2
2015-Jul-17 11:29S 23°29' W 041°01'0 0.2
2015-Jul-17 10:31S 23°29' W 041°01'1 0.7
2015-Jul-17 09:17S 23°30' W 041°02'2 2.1
2015-Jul-17 08:32S 23°29' W 041°00'1 0.2
2015-Jul-17 05:27S 23°28' W 041°00'1 1.0
2015-Jul-17 04:32S 23°28' W 041°01'1 1.0
2015-Jul-17 03:31S 23°29' W 041°02'1 0.8
2015-Jul-17 02:29S 23°29' W 041°03'1 0.7
2015-Jul-17 00:33S 23°29' W 041°02'0 0.2
2015-Jul-16 23:31S 23°29' W 041°02'0 0.1
2015-Jul-16 22:33S 23°29' W 041°02'0 0.2
2015-Jul-16 21:33S 23°29' W 041°02'3 3.0
2015-Jul-16 20:31S 23°27' W 040°60'0 0.5
2015-Jul-16 19:30S 23°27' W 040°60'1 1.0
2015-Jul-16 18:31S 23°27' W 041°01'1 0.9
2015-Jul-16 17:33S 23°27' W 041°02'1 0.6
2015-Jul-16 16:33S 23°28' W 041°02'1 0.6
2015-Jul-16 15:33S 23°28' W 041°02'1 0.6
2015-Jul-16 14:31S 23°29' W 041°02'0 0.1
2015-Jul-16 12:29S 23°29' W 041°02'0 0.1
2015-Jul-16 11:33S 23°29' W 041°02'0 0.1
2015-Jul-16 10:33S 23°29' W 041°02'0 0.1
2015-Jul-16 09:34S 23°29' W 041°02'1 0.9
2015-Jul-16 08:25S 23°29' W 041°01'0 0.6
2015-Jul-16 07:31S 23°29' W 041°02'0 0.5
2015-Jul-16 06:33S 23°29' W 041°02'0 0.4
2015-Jul-16 05:33S 23°30' W 041°01'1 0.9
2015-Jul-16 04:33S 23°29' W 041°01'1 0.1
2015-Jul-15 21:32S 23°29' W 041°02'0 0.2
2015-Jul-15 20:28S 23°29' W 041°02'0 0.3
2015-Jul-15 19:33S 23°29' W 041°02'0 0.3
2015-Jul-15 18:32S 23°29' W 041°02'0 0.2
2015-Jul-15 17:33S 23°29' W 041°02'0 0.2
2015-Jul-15 16:33S 23°29' W 041°02'0 0.2
2015-Jul-15 15:33S 23°29' W 041°02'1 0.5
2015-Jul-15 14:32S 23°29' W 041°02'0 0.3
2015-Jul-15 13:26S 23°29' W 041°02'1 0.7
2015-Jul-15 12:33S 23°29' W 041°01'1 0.9
2015-Jul-15 11:31S 23°29' W 041°02'0 0.2
2015-Jul-15 10:32S 23°29' W 041°02'0 0.2
2015-Jul-15 09:24S 23°29' W 041°02'0 0.1
2015-Jul-15 08:33S 23°29' W 041°02'0 0.5
2015-Jul-15 07:32S 23°29' W 041°02'1 0.9
2015-Jul-15 06:33S 23°29' W 041°03'0 0.2
2015-Jul-15 05:32S 23°29' W 041°02'0 0.3
2015-Jul-15 04:33S 23°29' W 041°02'1 0.5
2015-Jul-15 03:33S 23°29' W 041°02'0 0.2
2015-Jul-15 02:32S 23°29' W 041°02'0 0.1
2015-Jul-15 01:33S 23°29' W 041°02'0 0.2
2015-Jul-15 00:33S 23°29' W 041°02'0 0.1
2015-Jul-14 23:32S 23°29' W 041°02'0 0.1
2015-Jul-14 22:33S 23°29' W 041°02'0 0.2
2015-Jul-14 21:28S 23°29' W 041°02'0 0.4
2015-Jul-14 20:27S 23°29' W 041°03'0 0.2
2015-Jul-14 19:33S 23°29' W 041°03'0 0.1
2015-Jul-14 18:33S 23°29' W 041°03'0 0.1
2015-Jul-14 17:33S 23°29' W 041°03'0 0.5
2015-Jul-14 16:33S 23°29' W 041°02'0 0.2
2015-Jul-14 15:20S 23°29' W 041°02'0 0.1
2015-Jul-14 14:33S 23°29' W 041°02'0 0.2
2015-Jul-14 13:33S 23°29' W 041°02'0 0.2
2015-Jul-14 12:33S 23°29' W 041°02'0 0.1
2015-Jul-14 11:33S 23°29' W 041°02'  

Dump ship's entire track history